createdAt,value
2022-10-21T00:01:06.198Z,63.75
2022-10-21T00:03:34.461Z,63.84
2022-10-21T00:06:04.841Z,64.23
2022-10-21T00:08:33.209Z,64.38
2022-10-21T00:11:03.342Z,64.10
2022-10-21T00:13:32.783Z,63.80
2022-10-21T00:16:02.930Z,63.83
2022-10-21T00:18:31.770Z,63.94
2022-10-21T00:21:00.373Z,63.73
2022-10-21T00:23:30.046Z,63.53
2022-10-21T00:25:58.786Z,63.80
2022-10-21T00:28:27.110Z,63.75
2022-10-21T00:30:57.938Z,63.98
2022-10-21T00:33:28.240Z,63.67
2022-10-21T00:36:01.553Z,63.48
2022-10-21T00:38:31.825Z,63.47
2022-10-21T00:41:00.306Z,63.34
2022-10-21T00:43:29.504Z,63.33
2022-10-21T00:46:01.507Z,63.28
2022-10-21T00:48:34.254Z,63.38
2022-10-21T00:51:06.861Z,63.55
2022-10-21T00:53:39.651Z,63.55
2022-10-21T00:56:15.608Z,63.44
2022-10-21T00:58:47.817Z,63.46
2022-10-21T01:01:19.391Z,63.43
2022-10-21T01:03:50.488Z,63.42
2022-10-21T01:06:21.877Z,63.41
2022-10-21T01:08:53.203Z,63.47
2022-10-21T01:11:23.576Z,63.71
2022-10-21T01:14:16.259Z,63.72
2022-10-21T01:16:51.783Z,63.76
2022-10-21T01:19:49.297Z,63.60
2022-10-21T01:22:29.187Z,63.67
2022-10-21T01:25:25.048Z,63.53
2022-10-21T01:28:02.015Z,63.55
2022-10-21T01:30:42.733Z,63.55
2022-10-21T01:33:39.453Z,63.56
2022-10-21T01:36:27.263Z,63.60
2022-10-21T01:39:04.194Z,63.50
2022-10-21T01:41:39.363Z,63.53
2022-10-21T01:44:14.589Z,63.52
2022-10-21T01:46:49.540Z,63.45
2022-10-21T01:49:24.738Z,63.46
2022-10-21T01:51:54.413Z,63.69
2022-10-21T01:54:27.881Z,63.66
2022-10-21T01:56:58.513Z,63.71
2022-10-21T01:59:30.001Z,63.85
2022-10-21T02:02:01.953Z,63.87
2022-10-21T02:04:31.874Z,63.80
2022-10-21T02:06:59.929Z,63.86
2022-10-21T02:09:28.086Z,63.76
2022-10-21T02:12:00.541Z,63.62
2022-10-21T02:14:33.450Z,63.63
2022-10-21T02:17:03.233Z,63.63
2022-10-21T02:22:02.617Z,63.62
2022-10-21T02:24:37.942Z,63.61
2022-10-21T02:27:06.526Z,63.75
2022-10-21T02:29:37.963Z,63.80
2022-10-21T02:32:21.005Z,63.62
2022-10-21T02:35:01.311Z,63.81
2022-10-21T02:37:34.140Z,63.95
2022-10-21T02:40:07.793Z,64.27
2022-10-21T02:42:40.790Z,64.44
2022-10-21T02:45:11.199Z,64.00
2022-10-21T02:47:41.417Z,63.94
2022-10-21T02:50:09.962Z,63.90
2022-10-21T02:52:37.970Z,63.96
2022-10-21T02:55:06.761Z,64.13
2022-10-21T02:57:34.865Z,64.11
2022-10-21T03:00:02.886Z,64.25
2022-10-21T03:02:30.882Z,64.10
2022-10-21T03:05:00.313Z,64.19
2022-10-21T03:07:28.354Z,64.28
2022-10-21T03:09:56.345Z,64.44
2022-10-21T03:12:24.313Z,64.51
2022-10-21T03:14:52.361Z,64.38
2022-10-21T03:17:22.856Z,64.24
2022-10-21T03:19:53.243Z,64.17
2022-10-21T03:22:22.593Z,64.25
2022-10-21T03:24:50.630Z,64.21
2022-10-21T03:27:18.828Z,64.12
2022-10-21T03:29:46.845Z,64.09
2022-10-21T03:32:14.830Z,64.03
2022-10-21T03:34:42.860Z,63.93
2022-10-21T03:37:10.841Z,63.83
2022-10-21T03:39:40.182Z,63.73
2022-10-21T03:42:08.227Z,63.79
2022-10-21T03:44:36.284Z,63.78
2022-10-21T03:47:04.281Z,63.76
2022-10-21T03:49:32.431Z,63.90
2022-10-21T03:52:00.514Z,63.84
2022-10-21T03:54:28.619Z,63.87
2022-10-21T03:56:58.038Z,63.76
2022-10-21T03:59:26.096Z,63.72
2022-10-21T04:01:54.158Z,63.76
2022-10-21T04:04:22.250Z,63.67
2022-10-21T04:06:50.361Z,63.60
2022-10-21T04:09:18.475Z,63.57
2022-10-21T04:11:46.562Z,63.42
2022-10-21T04:14:15.953Z,63.41
2022-10-21T04:16:44.078Z,63.50
2022-10-21T04:19:17.428Z,63.53
2022-10-21T04:21:45.550Z,63.76
2022-10-21T04:24:13.776Z,63.50
2022-10-21T04:26:42.594Z,63.40
2022-10-21T04:29:10.615Z,63.44
2022-10-21T04:31:39.974Z,63.56
2022-10-21T04:34:08.033Z,63.69
2022-10-21T04:36:36.018Z,63.70
2022-10-21T04:39:04.770Z,63.68
2022-10-21T04:41:32.780Z,63.82
2022-10-21T04:44:00.781Z,64.00
2022-10-21T04:46:28.791Z,64.09
2022-10-21T04:48:58.150Z,64.11
2022-10-21T04:51:26.246Z,64.04
2022-10-21T04:53:54.298Z,63.86
2022-10-21T04:56:22.322Z,63.94
2022-10-21T04:58:50.322Z,63.92
2022-10-21T05:01:18.438Z,63.93
2022-10-21T05:03:46.527Z,63.91
2022-10-21T05:06:15.927Z,63.75
2022-10-21T05:08:44.008Z,63.65
2022-10-21T05:11:12.086Z,63.50
2022-10-21T05:13:40.081Z,63.56
2022-10-21T05:16:08.598Z,63.50
2022-10-21T05:18:36.552Z,63.47
2022-10-21T05:21:04.794Z,63.49
2022-10-21T05:23:34.354Z,63.40
2022-10-21T05:26:02.348Z,63.35
2022-10-21T05:28:30.433Z,63.21
2022-10-21T05:30:58.426Z,63.21
2022-10-21T05:33:26.418Z,63.15
2022-10-21T05:35:58.788Z,63.08
2022-10-21T05:38:26.837Z,63.31
2022-10-21T05:40:56.671Z,63.34
2022-10-21T05:43:25.155Z,63.31
2022-10-21T05:45:53.109Z,63.20
2022-10-21T05:48:21.200Z,63.19
2022-10-21T05:50:52.774Z,63.05
2022-10-21T05:53:20.903Z,63.11
2022-10-21T05:55:58.183Z,62.82
2022-10-21T05:58:26.891Z,62.99
2022-10-21T06:00:55.477Z,62.90
2022-10-21T06:03:24.013Z,62.82
2022-10-21T06:05:52.041Z,62.83
2022-10-21T06:08:20.081Z,62.84
2022-10-21T06:10:48.054Z,62.82
2022-10-21T06:13:17.449Z,62.76
2022-10-21T06:15:48.745Z,62.86
2022-10-21T06:18:18.329Z,62.95
2022-10-21T06:20:46.304Z,63.00
2022-10-21T06:23:16.248Z,63.05
2022-10-21T06:25:44.565Z,63.04
2022-10-21T06:28:12.574Z,63.21
2022-10-21T06:30:41.972Z,63.22
2022-10-21T06:33:09.940Z,63.31
2022-10-21T06:35:37.990Z,63.22
2022-10-21T06:38:05.965Z,63.16
2022-10-21T06:40:34.033Z,63.18
2022-10-21T06:43:02.177Z,63.27
2022-10-21T06:45:30.210Z,63.34
2022-10-21T06:47:59.736Z,63.33
2022-10-21T06:50:27.854Z,63.46
2022-10-21T06:52:56.126Z,63.47
2022-10-21T06:55:24.162Z,63.45
2022-10-21T06:57:52.190Z,63.34
2022-10-21T07:00:20.301Z,63.30
2022-10-21T07:02:48.366Z,63.50
2022-10-21T07:05:17.959Z,63.53
2022-10-21T07:07:46.077Z,63.51
2022-10-21T07:10:14.333Z,63.66
2022-10-21T07:12:42.337Z,63.60
2022-10-21T07:15:11.090Z,63.75
2022-10-21T07:17:39.370Z,64.15
2022-10-21T07:20:08.389Z,63.80
2022-10-21T07:22:37.751Z,64.43
2022-10-21T07:25:06.502Z,64.32
2022-10-21T07:27:34.604Z,63.73
2022-10-21T07:30:02.678Z,62.05
2022-10-21T07:32:30.811Z,61.05
2022-10-21T07:34:58.859Z,60.64
2022-10-21T07:37:26.841Z,59.62
2022-10-21T07:39:56.462Z,59.10
2022-10-21T07:42:24.664Z,59.32
2022-10-21T07:44:57.336Z,59.92
2022-10-21T07:47:25.779Z,60.38
2022-10-21T07:49:54.301Z,60.73
2022-10-21T07:52:22.605Z,60.73
2022-10-21T07:54:50.953Z,60.48
2022-10-21T07:57:20.669Z,60.17
2022-10-21T07:59:48.989Z,60.06
2022-10-21T08:02:17.313Z,60.32
2022-10-21T08:04:45.729Z,60.73
2022-10-21T08:07:14.100Z,60.96
2022-10-21T08:09:42.431Z,61.39
2022-10-21T08:12:14.390Z,62.67
2022-10-21T08:14:45.232Z,61.53
2022-10-21T08:17:13.579Z,60.76
2022-10-21T08:19:41.888Z,59.96
2022-10-21T08:22:10.679Z,60.22
2022-10-21T08:24:42.367Z,60.70
2022-10-21T08:27:10.796Z,59.71
2022-10-21T08:29:40.085Z,59.22
2022-10-21T08:32:10.188Z,59.22
2022-10-21T08:34:38.466Z,59.31
2022-10-21T08:37:06.817Z,59.65
2022-10-21T08:39:35.583Z,61.02
2022-10-21T08:42:09.012Z,61.38
2022-10-21T08:44:49.293Z,61.83
2022-10-21T08:47:25.100Z,59.86
2022-10-21T08:49:59.500Z,59.45
2022-10-21T08:52:38.094Z,58.41
2022-10-21T08:55:09.363Z,58.78
2022-10-21T08:57:38.110Z,57.56
2022-10-21T09:00:15.920Z,57.74
2022-10-21T09:03:06.074Z,56.58
2022-10-21T09:06:08.616Z,53.57
2022-10-21T09:08:43.408Z,53.49
2022-10-21T09:11:25.445Z,53.68
2022-10-21T09:14:23.465Z,53.96
2022-10-21T09:16:59.901Z,54.44
2022-10-21T09:19:41.693Z,55.06
2022-10-21T09:22:36.211Z,55.64
2022-10-21T09:25:19.093Z,54.44
2022-10-21T09:28:03.337Z,53.39
2022-10-21T09:30:31.974Z,54.65
2022-10-21T09:33:01.382Z,54.71
2022-10-21T09:35:37.233Z,54.80
2022-10-21T09:38:09.746Z,55.39
2022-10-21T09:40:38.113Z,54.59
2022-10-21T09:43:12.555Z,53.38
2022-10-21T09:45:42.655Z,53.07
2022-10-21T09:48:24.274Z,53.27
2022-10-21T09:50:57.310Z,52.22
2022-10-21T09:53:30.245Z,52.03
2022-10-21T09:56:03.887Z,52.87
2022-10-21T09:58:49.543Z,53.21
2022-10-21T10:01:20.389Z,54.20
2022-10-21T10:03:50.645Z,52.75
2022-10-21T10:06:35.402Z,50.63
2022-10-21T10:09:10.144Z,48.54
2022-10-21T10:11:50.491Z,45.95
2022-10-21T10:14:31.151Z,44.88
2022-10-21T10:17:19.766Z,45.45
2022-10-21T10:20:13.543Z,44.49
2022-10-21T10:22:44.846Z,41.33
2022-10-21T10:25:22.933Z,42.19
2022-10-21T10:27:53.894Z,41.12
2022-10-21T10:30:23.705Z,41.24
2022-10-21T10:32:53.846Z,40.91
2022-10-21T10:35:30.004Z,40.93
2022-10-21T10:38:02.566Z,40.76
2022-10-21T10:40:38.958Z,41.62
2022-10-21T10:43:14.477Z,41.54
2022-10-21T10:45:49.690Z,41.26
2022-10-21T10:48:25.267Z,41.58
2022-10-21T10:50:53.614Z,41.76
2022-10-21T10:53:32.998Z,42.52
2022-10-21T10:56:14.776Z,43.37
2022-10-21T10:58:47.731Z,43.37
2022-10-21T11:01:26.665Z,43.26
2022-10-21T11:03:58.834Z,43.77
2022-10-21T11:06:36.665Z,43.33
2022-10-21T11:09:09.071Z,43.78
2022-10-21T11:11:40.014Z,43.61
2022-10-21T11:14:17.590Z,44.00
2022-10-21T11:17:06.753Z,44.84
2022-10-21T11:19:53.931Z,45.21
2022-10-21T11:22:30.617Z,46.36
2022-10-21T11:25:05.854Z,46.99
2022-10-21T11:27:55.543Z,47.54
2022-10-21T11:30:29.845Z,47.41
2022-10-21T11:33:06.627Z,47.62
2022-10-21T11:35:45.160Z,47.91
2022-10-21T11:38:30.612Z,48.14
2022-10-21T11:41:06.692Z,49.08
2022-10-21T11:43:44.445Z,49.24
2022-10-21T11:46:18.979Z,49.29
2022-10-21T11:49:08.262Z,49.21
2022-10-21T11:51:47.357Z,49.65
2022-10-21T11:54:32.831Z,50.23
2022-10-21T11:57:07.387Z,50.43
2022-10-21T11:59:54.188Z,50.53
2022-10-21T12:02:33.132Z,50.64
2022-10-21T12:05:07.047Z,50.88
2022-10-21T12:07:51.226Z,50.43
2022-10-21T12:10:32.794Z,50.50
2022-10-21T12:13:07.581Z,50.92
2022-10-21T12:15:41.423Z,50.95
2022-10-21T12:18:16.581Z,50.34
2022-10-21T12:20:48.998Z,50.69
2022-10-21T12:23:21.396Z,51.08
2022-10-21T12:26:06.699Z,50.76
2022-10-21T12:28:40.697Z,51.22
2022-10-21T12:31:24.949Z,51.15
2022-10-21T12:33:54.069Z,51.09
2022-10-21T12:36:45.403Z,51.08
2022-10-21T12:39:19.442Z,51.40
2022-10-21T12:41:48.707Z,51.49
2022-10-21T12:44:30.057Z,51.59
2022-10-21T12:47:03.804Z,51.82
2022-10-21T12:49:34.123Z,51.88
2022-10-21T12:52:10.799Z,52.07
2022-10-21T12:54:44.443Z,52.34
2022-10-21T12:57:25.297Z,51.91
2022-10-21T13:00:15.905Z,52.07
2022-10-21T13:03:03.874Z,52.03
2022-10-21T13:06:03.713Z,52.06
2022-10-21T13:08:40.326Z,52.39
2022-10-21T13:11:23.714Z,52.44
2022-10-21T13:14:25.411Z,52.49
2022-10-21T13:17:14.773Z,52.34
2022-10-21T13:19:43.326Z,52.72
2022-10-21T13:22:18.713Z,52.80
2022-10-21T13:24:47.847Z,53.02
2022-10-21T13:27:31.049Z,53.25
2022-10-21T13:30:00.742Z,53.43
2022-10-21T13:32:32.495Z,53.25
2022-10-21T13:35:27.743Z,53.17
2022-10-21T13:38:00.678Z,53.58
2022-10-21T13:40:33.919Z,53.71
2022-10-21T13:43:06.821Z,53.83
2022-10-21T13:45:37.670Z,53.91
2022-10-21T13:48:14.065Z,53.65
2022-10-21T13:50:44.565Z,54.00
2022-10-21T13:53:29.801Z,54.03
2022-10-21T13:56:00.997Z,54.01
2022-10-21T13:58:31.773Z,54.17
2022-10-21T14:01:09.370Z,54.20
2022-10-21T14:03:39.548Z,54.21
2022-10-21T14:06:09.780Z,54.26
2022-10-21T14:08:42.056Z,54.29
2022-10-21T14:11:17.560Z,54.33
2022-10-21T14:13:47.818Z,54.34
2022-10-21T14:16:21.562Z,54.51
2022-10-21T14:18:51.477Z,54.67
2022-10-21T14:21:22.822Z,54.72
2022-10-21T14:23:51.400Z,54.62
2022-10-21T14:26:20.169Z,54.74
2022-10-21T14:28:50.281Z,54.71
2022-10-21T14:31:19.446Z,54.90
2022-10-21T14:33:49.667Z,54.92
2022-10-21T14:36:23.334Z,54.80
2022-10-21T14:38:58.786Z,54.78
2022-10-21T14:41:29.548Z,54.95
2022-10-21T14:44:05.854Z,54.95
2022-10-21T14:46:42.539Z,55.06
2022-10-21T14:49:22.158Z,54.99
2022-10-21T14:51:57.150Z,55.16
2022-10-21T14:54:29.851Z,55.17
2022-10-21T14:57:00.085Z,55.28
2022-10-21T14:59:35.255Z,54.90
2022-10-21T15:02:04.136Z,54.97
2022-10-21T15:04:51.816Z,54.94
2022-10-21T15:07:29.853Z,54.87
2022-10-21T15:10:18.163Z,54.81
2022-10-21T15:12:47.515Z,54.69
2022-10-21T15:15:48.249Z,54.65
2022-10-21T15:18:23.863Z,54.77
2022-10-21T15:20:54.519Z,54.86
2022-10-21T15:23:27.971Z,54.91
2022-10-21T15:26:00.328Z,55.10
2022-10-21T15:28:31.337Z,55.16
2022-10-21T15:31:00.050Z,55.24
2022-10-21T15:33:28.469Z,55.36
2022-10-21T15:36:04.296Z,55.33
2022-10-21T15:38:33.718Z,55.76
2022-10-21T15:41:01.865Z,56.00
2022-10-21T15:43:29.981Z,56.14
2022-10-21T15:45:58.086Z,56.19
2022-10-21T15:48:26.194Z,56.16
2022-10-21T15:50:57.202Z,56.31
2022-10-21T15:53:25.297Z,56.43
2022-10-21T15:55:55.798Z,56.41
2022-10-21T15:58:26.425Z,56.53
2022-10-21T16:00:54.475Z,56.53
2022-10-21T16:03:22.953Z,56.56
2022-10-21T16:05:51.511Z,56.68
2022-10-21T16:08:19.494Z,56.74
2022-10-21T16:10:49.974Z,56.81
2022-10-21T16:13:19.474Z,56.81
2022-10-21T16:15:47.542Z,57.00
2022-10-21T16:18:16.959Z,57.04
2022-10-21T16:20:46.084Z,57.47
2022-10-21T16:23:14.505Z,57.23
2022-10-21T16:25:42.495Z,57.18
2022-10-21T16:28:13.177Z,57.24
2022-10-21T16:30:42.844Z,57.45
2022-10-21T16:33:11.318Z,57.80
2022-10-21T16:35:39.353Z,57.79
2022-10-21T16:38:07.399Z,57.86
2022-10-21T16:40:36.481Z,57.92
2022-10-21T16:43:04.499Z,57.83
2022-10-21T16:45:33.626Z,57.85
2022-10-21T16:48:06.886Z,57.70
2022-10-21T16:50:39.508Z,57.91
2022-10-21T16:53:08.525Z,57.96
2022-10-21T16:55:36.481Z,57.93
2022-10-21T16:58:04.625Z,57.89
2022-10-21T17:00:32.701Z,57.90
2022-10-21T17:03:02.517Z,58.03
2022-10-21T17:05:30.643Z,58.09
2022-10-21T17:08:00.046Z,58.14
2022-10-21T17:10:28.443Z,58.09
2022-10-21T17:12:59.252Z,58.00
2022-10-21T17:15:28.868Z,58.07
2022-10-21T17:17:56.970Z,58.09
2022-10-21T17:20:30.295Z,58.09
2022-10-21T17:22:58.877Z,58.07
2022-10-21T17:25:27.296Z,58.02
2022-10-21T17:27:55.369Z,58.04
2022-10-21T17:30:23.489Z,58.00
2022-10-21T17:32:51.470Z,57.91
2022-10-21T17:35:19.873Z,57.90
2022-10-21T17:37:50.086Z,57.91
2022-10-21T17:40:20.927Z,58.17
2022-10-21T17:42:49.682Z,58.33
2022-10-21T17:45:19.541Z,58.48
2022-10-21T17:47:47.605Z,58.53
2022-10-21T17:50:18.422Z,58.69
2022-10-21T17:52:46.446Z,58.74
2022-10-21T17:55:15.815Z,58.82
2022-10-21T17:57:43.838Z,59.09
2022-10-21T18:00:12.674Z,59.03
2022-10-21T18:02:41.179Z,59.05
2022-10-21T18:05:10.807Z,58.99
2022-10-21T18:07:39.280Z,58.99
2022-10-21T18:10:09.099Z,58.99
2022-10-21T18:12:38.721Z,59.09
2022-10-21T18:15:07.775Z,59.09
2022-10-21T18:17:37.483Z,59.14
2022-10-21T18:20:07.720Z,59.14
2022-10-21T18:22:36.072Z,59.11
2022-10-21T18:25:04.150Z,59.35
2022-10-21T18:27:32.196Z,59.28
2022-10-21T18:30:01.645Z,59.28
2022-10-21T18:32:29.628Z,59.51
2022-10-21T18:34:57.608Z,59.58
2022-10-21T18:37:28.760Z,59.61
2022-10-21T18:39:58.978Z,59.66
2022-10-21T18:42:27.558Z,59.66
2022-10-21T18:44:55.547Z,59.54
2022-10-21T18:47:24.953Z,59.64
2022-10-21T18:49:53.621Z,59.63
2022-10-21T18:52:21.688Z,59.73
2022-10-21T18:54:49.739Z,59.68
2022-10-21T18:57:17.736Z,59.69
2022-10-21T18:59:45.728Z,59.65
2022-10-21T19:02:20.264Z,59.53
2022-10-21T19:04:52.190Z,59.61
2022-10-21T19:07:20.235Z,59.68
2022-10-21T19:09:48.469Z,59.68
2022-10-21T19:12:21.038Z,59.58
2022-10-21T19:14:51.342Z,59.70
2022-10-21T19:17:20.109Z,59.77
2022-10-21T19:19:50.378Z,59.80
2022-10-21T19:22:18.535Z,60.02
2022-10-21T19:24:46.684Z,59.96
2022-10-21T19:27:15.059Z,59.96
2022-10-21T19:29:43.433Z,59.89
2022-10-21T19:32:13.685Z,59.92
2022-10-21T19:34:41.779Z,60.07
2022-10-21T19:37:12.524Z,60.16
2022-10-21T19:39:40.953Z,60.20
2022-10-21T19:42:08.999Z,60.39
2022-10-21T19:44:37.238Z,60.36
2022-10-21T19:47:05.322Z,60.42
2022-10-21T19:49:33.920Z,60.40
2022-10-21T19:52:03.196Z,60.48
2022-10-21T19:54:32.615Z,60.62
2022-10-21T19:57:00.634Z,60.48
2022-10-21T19:59:28.762Z,60.37
2022-10-21T20:01:56.864Z,60.42
2022-10-21T20:04:24.848Z,60.64
2022-10-21T20:06:52.927Z,60.89
2022-10-21T20:09:21.013Z,60.89
2022-10-21T20:11:50.441Z,60.96
2022-10-21T20:14:18.563Z,60.91
2022-10-21T20:16:49.977Z,61.02
2022-10-21T20:19:18.069Z,61.05
2022-10-21T20:21:46.227Z,60.94
2022-10-21T20:24:16.093Z,60.78
2022-10-21T20:26:45.652Z,60.92
2022-10-21T20:29:15.572Z,60.76
2022-10-21T20:31:43.675Z,60.57
2022-10-21T20:34:13.515Z,60.66
2022-10-21T20:36:41.911Z,60.83
2022-10-21T20:39:10.473Z,60.52
2022-10-21T20:41:38.654Z,60.58
2022-10-21T20:44:08.650Z,60.41
2022-10-21T20:46:38.537Z,60.41
2022-10-21T20:49:08.509Z,60.40
2022-10-21T20:51:38.430Z,60.42
2022-10-21T20:54:08.694Z,60.47
2022-10-21T20:56:38.860Z,60.40
2022-10-21T20:59:07.966Z,60.41
2022-10-21T21:01:41.924Z,60.34
2022-10-21T21:04:12.616Z,60.62
2022-10-21T21:06:42.642Z,60.46
2022-10-21T21:14:32.433Z,60.46
2022-10-21T21:17:01.866Z,60.35
2022-10-21T21:19:29.923Z,60.38
2022-10-21T21:21:57.971Z,60.68
2022-10-21T21:24:26.049Z,60.54
2022-10-21T21:26:54.047Z,60.37
2022-10-21T21:29:22.046Z,60.62
2022-10-21T21:31:50.113Z,60.52
2022-10-21T21:34:19.594Z,60.64
2022-10-21T21:36:47.587Z,60.72
2022-10-21T21:41:48.534Z,60.54
2022-10-21T21:44:16.586Z,60.57
2022-10-21T21:46:44.622Z,60.57
2022-10-21T21:49:12.638Z,60.71
2022-10-21T21:51:42.009Z,60.76
2022-10-21T21:54:10.046Z,60.92
2022-10-21T21:56:38.146Z,60.95
2022-10-21T21:59:06.175Z,60.80
2022-10-21T22:01:34.260Z,60.80
2022-10-21T22:04:02.359Z,60.76
2022-10-21T22:06:31.979Z,60.82
2022-10-21T22:09:02.964Z,60.92
2022-10-21T22:11:33.539Z,61.03
2022-10-21T22:14:01.754Z,61.09
2022-10-21T22:16:31.060Z,61.50
2022-10-21T22:19:01.289Z,61.34
2022-10-21T22:21:31.436Z,61.88
2022-10-21T22:24:00.985Z,62.13
2022-10-21T22:26:29.912Z,62.37
2022-10-21T22:28:58.117Z,62.56
2022-10-21T22:31:29.455Z,62.87
2022-10-21T22:34:00.527Z,63.27
2022-10-21T22:36:28.641Z,63.17
2022-10-21T22:38:56.639Z,63.24
2022-10-21T22:41:26.646Z,63.52
2022-10-21T22:43:54.744Z,63.50
2022-10-21T22:46:34.247Z,63.62
2022-10-21T22:49:03.604Z,63.73
2022-10-21T22:51:31.601Z,63.90
2022-10-21T22:53:59.787Z,64.11
2022-10-21T22:56:29.298Z,64.14
2022-10-21T22:58:57.879Z,64.14
2022-10-21T23:01:28.956Z,64.12
2022-10-21T23:03:57.981Z,64.09
2022-10-21T23:06:25.976Z,64.41
2022-10-21T23:08:54.043Z,64.30
2022-10-21T23:11:22.110Z,64.13
2022-10-21T23:14:02.493Z,64.12
2022-10-21T23:16:32.165Z,64.22
2022-10-21T23:19:00.593Z,64.05
2022-10-21T23:21:29.032Z,63.99
2022-10-21T23:23:57.504Z,64.11
2022-10-21T23:26:25.910Z,64.09
2022-10-21T23:28:55.457Z,64.18
2022-10-21T23:31:23.441Z,64.17
2022-10-21T23:33:51.471Z,64.11
2022-10-21T23:36:19.514Z,63.97
2022-10-21T23:38:47.545Z,63.84
2022-10-21T23:41:15.529Z,63.88
2022-10-21T23:43:43.538Z,64.11
2022-10-21T23:46:12.973Z,63.98
2022-10-21T23:48:41.115Z,63.98
2022-10-21T23:51:09.268Z,63.90
2022-10-21T23:53:37.342Z,63.84
2022-10-21T23:56:05.967Z,63.83
2022-10-21T23:58:33.981Z,63.81
